sensor_id;sensor_type;location;lat;lon;timestamp;temperature;humidity
18575;DHT22;9417;16.484;102.872;2023-04-25T00:00:06;26.60;99.90
18575;DHT22;9417;16.484;102.872;2023-04-25T00:02:16;26.60;99.80
18575;DHT22;9417;16.484;102.872;2023-04-25T00:04:24;26.70;99.90
18575;DHT22;9417;16.484;102.872;2023-04-25T00:06:35;26.70;99.90
18575;DHT22;9417;16.484;102.872;2023-04-25T00:08:44;26.80;99.40
18575;DHT22;9417;16.484;102.872;2023-04-25T00:10:51;26.80;98.70
18575;DHT22;9417;16.484;102.872;2023-04-25T00:12:59;26.90;98.50
18575;DHT22;9417;16.484;102.872;2023-04-25T00:15:07;26.90;98.00
18575;DHT22;9417;16.484;102.872;2023-04-25T00:17:16;26.90;97.50
18575;DHT22;9417;16.484;102.872;2023-04-25T00:19:24;26.90;96.60
18575;DHT22;9417;16.484;102.872;2023-04-25T00:21:31;27.00;97.90
18575;DHT22;9417;16.484;102.872;2023-04-25T00:23:39;27.00;96.70
18575;DHT22;9417;16.484;102.872;2023-04-25T00:25:49;27.00;97.00
18575;DHT22;9417;16.484;102.872;2023-04-25T00:27:56;27.10;96.80
18575;DHT22;9417;16.484;102.872;2023-04-25T00:30:04;27.10;96.70
18575;DHT22;9417;16.484;102.872;2023-04-25T00:32:12;27.10;96.60
18575;DHT22;9417;16.484;102.872;2023-04-25T00:34:20;27.20;95.80
18575;DHT22;9417;16.484;102.872;2023-04-25T00:36:28;27.20;95.90
18575;DHT22;9417;16.484;102.872;2023-04-25T00:38:35;27.30;95.80
18575;DHT22;9417;16.484;102.872;2023-04-25T00:40:43;27.30;95.30
18575;DHT22;9417;16.484;102.872;2023-04-25T00:42:52;27.40;95.30
18575;DHT22;9417;16.484;102.872;2023-04-25T00:45:00;27.40;94.90
18575;DHT22;9417;16.484;102.872;2023-04-25T00:47:08;27.50;92.80
18575;DHT22;9417;16.484;102.872;2023-04-25T00:49:15;27.50;91.50
18575;DHT22;9417;16.484;102.872;2023-04-25T00:51:22;27.50;91.70
18575;DHT22;9417;16.484;102.872;2023-04-25T00:53:31;27.60;92.20
18575;DHT22;9417;16.484;102.872;2023-04-25T00:55:39;27.60;91.90
18575;DHT22;9417;16.484;102.872;2023-04-25T00:57:46;27.70;90.60
18575;DHT22;9417;16.484;102.872;2023-04-25T00:59:55;27.70;90.00
18575;DHT22;9417;16.484;102.872;2023-04-25T01:02:04;27.80;89.50
18575;DHT22;9417;16.484;102.872;2023-04-25T01:04:14;27.90;89.60
18575;DHT22;9417;16.484;102.872;2023-04-25T01:06:22;27.90;87.90
18575;DHT22;9417;16.484;102.872;2023-04-25T01:08:30;27.90;87.60
18575;DHT22;9417;16.484;102.872;2023-04-25T01:10:37;28.00;87.50
18575;DHT22;9417;16.484;102.872;2023-04-25T01:12:45;28.00;87.40
18575;DHT22;9417;16.484;102.872;2023-04-25T01:14:54;28.10;86.50
18575;DHT22;9417;16.484;102.872;2023-04-25T01:17:02;28.10;85.70
18575;DHT22;9417;16.484;102.872;2023-04-25T01:19:11;28.20;85.50
18575;DHT22;9417;16.484;102.872;2023-04-25T01:21:20;28.30;84.90
18575;DHT22;9417;16.484;102.872;2023-04-25T01:23:27;28.40;84.70
18575;DHT22;9417;16.484;102.872;2023-04-25T01:25:35;28.40;82.90
18575;DHT22;9417;16.484;102.872;2023-04-25T01:27:44;28.50;82.50
18575;DHT22;9417;16.484;102.872;2023-04-25T01:29:52;28.60;82.30
18575;DHT22;9417;16.484;102.872;2023-04-25T01:32:01;28.70;82.50
18575;DHT22;9417;16.484;102.872;2023-04-25T01:34:09;28.80;82.10
18575;DHT22;9417;16.484;102.872;2023-04-25T01:36:16;28.80;82.50
18575;DHT22;9417;16.484;102.872;2023-04-25T01:38:26;28.90;82.40
18575;DHT22;9417;16.484;102.872;2023-04-25T01:40:35;29.00;81.30
18575;DHT22;9417;16.484;102.872;2023-04-25T01:42:44;29.10;80.10
18575;DHT22;9417;16.484;102.872;2023-04-25T01:44:51;29.10;80.40
18575;DHT22;9417;16.484;102.872;2023-04-25T01:46:59;29.10;80.20
18575;DHT22;9417;16.484;102.872;2023-04-25T01:49:07;29.20;79.60
18575;DHT22;9417;16.484;102.872;2023-04-25T01:51:15;29.20;76.50
18575;DHT22;9417;16.484;102.872;2023-04-25T01:53:23;29.30;77.40
18575;DHT22;9417;16.484;102.872;2023-04-25T01:55:32;29.50;77.50
18575;DHT22;9417;16.484;102.872;2023-04-25T01:57:47;29.50;77.20
18575;DHT22;9417;16.484;102.872;2023-04-25T02:00:00;29.50;76.70
18575;DHT22;9417;16.484;102.872;2023-04-25T02:02:16;29.70;76.90
18575;DHT22;9417;16.484;102.872;2023-04-25T02:04:24;29.80;76.90
18575;DHT22;9417;16.484;102.872;2023-04-25T02:06:32;29.80;75.40
18575;DHT22;9417;16.484;102.872;2023-04-25T02:08:39;29.80;76.10
18575;DHT22;9417;16.484;102.872;2023-04-25T02:10:51;29.90;75.90
18575;DHT22;9417;16.484;102.872;2023-04-25T02:13:00;30.00;75.50
18575;DHT22;9417;16.484;102.872;2023-04-25T02:15:17;30.00;75.00
18575;DHT22;9417;16.484;102.872;2023-04-25T02:17:28;30.10;74.90
18575;DHT22;9417;16.484;102.872;2023-04-25T02:19:36;30.20;74.60
18575;DHT22;9417;16.484;102.872;2023-04-25T02:21:44;30.30;73.50
18575;DHT22;9417;16.484;102.872;2023-04-25T02:23:51;30.30;75.40
18575;DHT22;9417;16.484;102.872;2023-04-25T02:26:00;30.30;72.30
18575;DHT22;9417;16.484;102.872;2023-04-25T02:28:08;30.40;71.10
18575;DHT22;9417;16.484;102.872;2023-04-25T02:30:15;30.50;71.90
18575;DHT22;9417;16.484;102.872;2023-04-25T02:32:23;30.50;71.60
18575;DHT22;9417;16.484;102.872;2023-04-25T02:34:30;30.60;71.50
18575;DHT22;9417;16.484;102.872;2023-04-25T02:36:38;30.60;71.80
18575;DHT22;9417;16.484;102.872;2023-04-25T02:38:46;30.60;72.30
18575;DHT22;9417;16.484;102.872;2023-04-25T02:40:53;30.70;72.00
18575;DHT22;9417;16.484;102.872;2023-04-25T02:43:04;30.80;72.40
18575;DHT22;9417;16.484;102.872;2023-04-25T02:45:12;30.90;71.80
18575;DHT22;9417;16.484;102.872;2023-04-25T02:47:19;31.00;71.50
18575;DHT22;9417;16.484;102.872;2023-04-25T02:49:27;31.00;70.50
18575;DHT22;9417;16.484;102.872;2023-04-25T02:51:34;31.10;70.60
18575;DHT22;9417;16.484;102.872;2023-04-25T02:53:41;31.20;70.70
18575;DHT22;9417;16.484;102.872;2023-04-25T02:55:49;31.20;71.20
18575;DHT22;9417;16.484;102.872;2023-04-25T02:57:57;31.30;70.90
18575;DHT22;9417;16.484;102.872;2023-04-25T03:00:27;31.40;70.70
18575;DHT22;9417;16.484;102.872;2023-04-25T03:02:35;31.40;70.70
18575;DHT22;9417;16.484;102.872;2023-04-25T03:04:43;31.50;68.10
18575;DHT22;9417;16.484;102.872;2023-04-25T03:06:51;31.50;65.70
18575;DHT22;9417;16.484;102.872;2023-04-25T03:08:58;31.60;66.80
18575;DHT22;9417;16.484;102.872;2023-04-25T03:11:07;31.60;67.60
18575;DHT22;9417;16.484;102.872;2023-04-25T03:13:14;31.80;67.40
18575;DHT22;9417;16.484;102.872;2023-04-25T03:15:22;31.80;66.90
18575;DHT22;9417;16.484;102.872;2023-04-25T03:17:31;31.90;67.30
18575;DHT22;9417;16.484;102.872;2023-04-25T03:19:39;32.00;67.60
18575;DHT22;9417;16.484;102.872;2023-04-25T03:21:46;32.00;65.80
18575;DHT22;9417;16.484;102.872;2023-04-25T03:23:54;32.10;65.30
18575;DHT22;9417;16.484;102.872;2023-04-25T03:26:01;32.10;66.80
18575;DHT22;9417;16.484;102.872;2023-04-25T03:28:09;32.20;66.30
18575;DHT22;9417;16.484;102.872;2023-04-25T03:30:16;32.30;64.60
18575;DHT22;9417;16.484;102.872;2023-04-25T03:32:24;32.30;65.20
18575;DHT22;9417;16.484;102.872;2023-04-25T03:34:33;32.40;65.60
18575;DHT22;9417;16.484;102.872;2023-04-25T03:36:41;32.50;65.40
18575;DHT22;9417;16.484;102.872;2023-04-25T03:38:49;32.60;64.60
18575;DHT22;9417;16.484;102.872;2023-04-25T03:40:57;32.60;62.00
18575;DHT22;9417;16.484;102.872;2023-04-25T03:43:18;32.70;62.10
18575;DHT22;9417;16.484;102.872;2023-04-25T03:45:31;32.70;61.20
18575;DHT22;9417;16.484;102.872;2023-04-25T03:47:39;32.80;63.40
18575;DHT22;9417;16.484;102.872;2023-04-25T03:49:48;32.80;61.80
18575;DHT22;9417;16.484;102.872;2023-04-25T03:51:58;32.80;60.70
18575;DHT22;9417;16.484;102.872;2023-04-25T03:54:11;33.00;61.40
18575;DHT22;9417;16.484;102.872;2023-04-25T03:56:30;33.10;61.90
18575;DHT22;9417;16.484;102.872;2023-04-25T03:58:48;33.10;62.30
18575;DHT22;9417;16.484;102.872;2023-04-25T04:00:58;33.10;62.70
18575;DHT22;9417;16.484;102.872;2023-04-25T04:03:07;33.10;63.30
18575;DHT22;9417;16.484;102.872;2023-04-25T04:05:17;33.10;62.70
18575;DHT22;9417;16.484;102.872;2023-04-25T04:07:30;33.20;62.20
18575;DHT22;9417;16.484;102.872;2023-04-25T04:09:38;33.30;61.30
18575;DHT22;9417;16.484;102.872;2023-04-25T04:11:52;33.40;60.70
18575;DHT22;9417;16.484;102.872;2023-04-25T04:13:59;33.40;61.00
18575;DHT22;9417;16.484;102.872;2023-04-25T04:16:07;33.50;59.90
18575;DHT22;9417;16.484;102.872;2023-04-25T04:18:15;33.50;59.10
18575;DHT22;9417;16.484;102.872;2023-04-25T04:20:25;33.60;58.00
18575;DHT22;9417;16.484;102.872;2023-04-25T04:22:33;33.70;58.40
18575;DHT22;9417;16.484;102.872;2023-04-25T04:24:44;33.80;59.10
18575;DHT22;9417;16.484;102.872;2023-04-25T04:26:56;33.80;58.30
18575;DHT22;9417;16.484;102.872;2023-04-25T04:29:22;33.80;59.10
18575;DHT22;9417;16.484;102.872;2023-04-25T04:31:36;33.90;59.40
18575;DHT22;9417;16.484;102.872;2023-04-25T04:33:44;33.90;57.70
18575;DHT22;9417;16.484;102.872;2023-04-25T04:35:54;33.90;55.60
18575;DHT22;9417;16.484;102.872;2023-04-25T04:38:01;34.00;55.50
18575;DHT22;9417;16.484;102.872;2023-04-25T04:40:11;34.00;56.10
18575;DHT22;9417;16.484;102.872;2023-04-25T04:42:42;34.10;56.20
18575;DHT22;9417;16.484;102.872;2023-04-25T04:45:14;34.10;55.40
18575;DHT22;9417;16.484;102.872;2023-04-25T04:47:43;34.10;55.50
18575;DHT22;9417;16.484;102.872;2023-04-25T04:50:23;34.10;56.80
18575;DHT22;9417;16.484;102.872;2023-04-25T04:52:59;34.20;55.60
18575;DHT22;9417;16.484;102.872;2023-04-25T04:55:32;34.10;56.40
18575;DHT22;9417;16.484;102.872;2023-04-25T04:57:51;34.10;57.10
18575;DHT22;9417;16.484;102.872;2023-04-25T05:00:25;34.10;55.80
18575;DHT22;9417;16.484;102.872;2023-04-25T05:02:48;34.00;57.70
18575;DHT22;9417;16.484;102.872;2023-04-25T05:05:14;34.00;59.50
18575;DHT22;9417;16.484;102.872;2023-04-25T05:07:41;34.00;58.60
18575;DHT22;9417;16.484;102.872;2023-04-25T05:10:12;34.00;57.30
18575;DHT22;9417;16.484;102.872;2023-04-25T05:12:39;34.00;56.90
18575;DHT22;9417;16.484;102.872;2023-04-25T05:15:07;34.00;58.40
18575;DHT22;9417;16.484;102.872;2023-04-25T05:17:33;34.10;57.10
18575;DHT22;9417;16.484;102.872;2023-04-25T05:19:52;34.20;56.90
18575;DHT22;9417;16.484;102.872;2023-04-25T05:22:10;34.40;56.90
18575;DHT22;9417;16.484;102.872;2023-04-25T05:24:40;34.50;56.90
18575;DHT22;9417;16.484;102.872;2023-04-25T05:27:06;34.50;56.90
18575;DHT22;9417;16.484;102.872;2023-04-25T05:29:24;34.70;56.70
18575;DHT22;9417;16.484;102.872;2023-04-25T05:31:51;34.70;54.90
18575;DHT22;9417;16.484;102.872;2023-04-25T05:34:00;34.80;54.80
18575;DHT22;9417;16.484;102.872;2023-04-25T05:36:19;34.80;54.60
18575;DHT22;9417;16.484;102.872;2023-04-25T05:38:27;34.90;55.00
18575;DHT22;9417;16.484;102.872;2023-04-25T05:40:40;35.10;55.00
18575;DHT22;9417;16.484;102.872;2023-04-25T05:42:54;35.10;55.10
18575;DHT22;9417;16.484;102.872;2023-04-25T05:45:18;35.10;54.70
18575;DHT22;9417;16.484;102.872;2023-04-25T05:47:40;35.00;53.90
18575;DHT22;9417;16.484;102.872;2023-04-25T05:49:53;35.00;53.50
18575;DHT22;9417;16.484;102.872;2023-04-25T05:52:18;35.00;54.30
18575;DHT22;9417;16.484;102.872;2023-04-25T05:54:53;34.90;54.10
18575;DHT22;9417;16.484;102.872;2023-04-25T05:57:01;34.90;55.40
18575;DHT22;9417;16.484;102.872;2023-04-25T05:59:11;35.00;54.90
18575;DHT22;9417;16.484;102.872;2023-04-25T06:01:18;35.20;54.20
18575;DHT22;9417;16.484;102.872;2023-04-25T06:03:27;35.30;53.60
18575;DHT22;9417;16.484;102.872;2023-04-25T06:05:35;35.40;53.60
18575;DHT22;9417;16.484;102.872;2023-04-25T06:07:42;35.50;53.40
18575;DHT22;9417;16.484;102.872;2023-04-25T06:09:50;35.50;52.30
18575;DHT22;9417;16.484;102.872;2023-04-25T06:11:58;35.60;52.50
18575;DHT22;9417;16.484;102.872;2023-04-25T06:14:06;35.60;52.90
18575;DHT22;9417;16.484;102.872;2023-04-25T06:16:22;35.70;53.70
18575;DHT22;9417;16.484;102.872;2023-04-25T06:18:31;35.80;53.00
18575;DHT22;9417;16.484;102.872;2023-04-25T06:20:38;35.70;53.80
18575;DHT22;9417;16.484;102.872;2023-04-25T06:22:47;35.60;53.20
18575;DHT22;9417;16.484;102.872;2023-04-25T06:24:54;35.60;54.40
18575;DHT22;9417;16.484;102.872;2023-04-25T06:27:04;35.60;51.60
18575;DHT22;9417;16.484;102.872;2023-04-25T06:29:12;35.50;52.40
18575;DHT22;9417;16.484;102.872;2023-04-25T06:31:21;35.50;54.00
18575;DHT22;9417;16.484;102.872;2023-04-25T06:33:31;35.40;53.60
18575;DHT22;9417;16.484;102.872;2023-04-25T06:35:39;35.40;53.10
18575;DHT22;9417;16.484;102.872;2023-04-25T06:37:49;35.40;54.20
18575;DHT22;9417;16.484;102.872;2023-04-25T06:39:58;35.40;53.70
18575;DHT22;9417;16.484;102.872;2023-04-25T06:42:07;35.40;51.30
18575;DHT22;9417;16.484;102.872;2023-04-25T06:44:25;35.50;50.80
18575;DHT22;9417;16.484;102.872;2023-04-25T06:46:36;35.40;51.70
18575;DHT22;9417;16.484;102.872;2023-04-25T06:48:43;35.40;52.80
18575;DHT22;9417;16.484;102.872;2023-04-25T06:50:53;35.40;53.10
18575;DHT22;9417;16.484;102.872;2023-04-25T06:53:02;35.50;53.30
18575;DHT22;9417;16.484;102.872;2023-04-25T06:55:10;35.50;52.60
18575;DHT22;9417;16.484;102.872;2023-04-25T06:57:43;35.50;53.40
18575;DHT22;9417;16.484;102.872;2023-04-25T07:00:10;35.60;53.30
18575;DHT22;9417;16.484;102.872;2023-04-25T07:02:19;35.70;54.10
18575;DHT22;9417;16.484;102.872;2023-04-25T07:04:28;35.70;50.80
18575;DHT22;9417;16.484;102.872;2023-04-25T07:06:36;35.60;50.00
18575;DHT22;9417;16.484;102.872;2023-04-25T07:08:47;35.60;51.70
18575;DHT22;9417;16.484;102.872;2023-04-25T07:10:55;35.60;51.20
18575;DHT22;9417;16.484;102.872;2023-04-25T07:13:03;35.70;51.60
18575;DHT22;9417;16.484;102.872;2023-04-25T07:15:11;35.70;52.40
18575;DHT22;9417;16.484;102.872;2023-04-25T07:17:23;35.80;51.60
18575;DHT22;9417;16.484;102.872;2023-04-25T07:19:31;35.80;51.00
18575;DHT22;9417;16.484;102.872;2023-04-25T07:21:38;35.80;51.60
18575;DHT22;9417;16.484;102.872;2023-04-25T07:23:47;35.80;52.20
18575;DHT22;9417;16.484;102.872;2023-04-25T07:26:00;35.90;52.10
18575;DHT22;9417;16.484;102.872;2023-04-25T07:28:08;36.10;51.30
18575;DHT22;9417;16.484;102.872;2023-04-25T07:30:15;36.10;51.40
18575;DHT22;9417;16.484;102.872;2023-04-25T07:32:25;36.20;51.80
18575;DHT22;9417;16.484;102.872;2023-04-25T07:34:32;36.20;52.20
18575;DHT22;9417;16.484;102.872;2023-04-25T07:36:43;36.20;51.40
18575;DHT22;9417;16.484;102.872;2023-04-25T07:38:51;36.10;50.40
18575;DHT22;9417;16.484;102.872;2023-04-25T07:40:59;36.10;50.70
18575;DHT22;9417;16.484;102.872;2023-04-25T07:43:06;36.20;51.30
18575;DHT22;9417;16.484;102.872;2023-04-25T07:45:22;36.20;51.30
18575;DHT22;9417;16.484;102.872;2023-04-25T07:47:32;36.20;52.30
18575;DHT22;9417;16.484;102.872;2023-04-25T07:49:39;36.10;51.20
18575;DHT22;9417;16.484;102.872;2023-04-25T07:51:47;36.00;51.50
18575;DHT22;9417;16.484;102.872;2023-04-25T07:53:56;36.00;52.20
18575;DHT22;9417;16.484;102.872;2023-04-25T07:56:05;36.00;52.10
18575;DHT22;9417;16.484;102.872;2023-04-25T07:58:15;36.00;51.60
18575;DHT22;9417;16.484;102.872;2023-04-25T08:00:36;36.00;51.50
18575;DHT22;9417;16.484;102.872;2023-04-25T08:03:15;36.10;51.30
18575;DHT22;9417;16.484;102.872;2023-04-25T08:05:24;36.20;51.30
18575;DHT22;9417;16.484;102.872;2023-04-25T08:07:37;36.20;50.60
18575;DHT22;9417;16.484;102.872;2023-04-25T08:09:45;36.10;50.70
18575;DHT22;9417;16.484;102.872;2023-04-25T08:12:00;36.00;50.40
18575;DHT22;9417;16.484;102.872;2023-04-25T08:14:09;35.90;49.80
18575;DHT22;9417;16.484;102.872;2023-04-25T08:16:18;35.90;51.10
18575;DHT22;9417;16.484;102.872;2023-04-25T08:18:29;35.90;51.60
18575;DHT22;9417;16.484;102.872;2023-04-25T08:20:36;36.00;51.40
18575;DHT22;9417;16.484;102.872;2023-04-25T08:22:46;35.90;50.90
18575;DHT22;9417;16.484;102.872;2023-04-25T08:25:05;35.90;50.50
18575;DHT22;9417;16.484;102.872;2023-04-25T08:27:13;36.00;51.10
18575;DHT22;9417;16.484;102.872;2023-04-25T08:29:21;35.90;50.90
18575;DHT22;9417;16.484;102.872;2023-04-25T08:31:30;36.00;51.00
18575;DHT22;9417;16.484;102.872;2023-04-25T08:33:41;35.80;50.40
18575;DHT22;9417;16.484;102.872;2023-04-25T08:36:21;35.80;50.80
18575;DHT22;9417;16.484;102.872;2023-04-25T08:39:12;35.90;51.40
18575;DHT22;9417;16.484;102.872;2023-04-25T08:41:37;36.00;50.30
18575;DHT22;9417;16.484;102.872;2023-04-25T08:43:47;36.00;51.30
18575;DHT22;9417;16.484;102.872;2023-04-25T08:45:57;36.00;52.30
18575;DHT22;9417;16.484;102.872;2023-04-25T08:48:16;36.10;52.30
18575;DHT22;9417;16.484;102.872;2023-04-25T08:50:25;36.00;51.50
18575;DHT22;9417;16.484;102.872;2023-04-25T08:52:37;36.00;51.80
18575;DHT22;9417;16.484;102.872;2023-04-25T08:54:48;35.90;50.90
18575;DHT22;9417;16.484;102.872;2023-04-25T08:56:57;35.90;51.00
18575;DHT22;9417;16.484;102.872;2023-04-25T08:59:06;35.80;51.60
18575;DHT22;9417;16.484;102.872;2023-04-25T09:01:14;35.80;51.60
18575;DHT22;9417;16.484;102.872;2023-04-25T09:03:27;35.70;51.50
18575;DHT22;9417;16.484;102.872;2023-04-25T09:05:37;35.70;52.00
18575;DHT22;9417;16.484;102.872;2023-04-25T09:07:47;35.60;52.60
18575;DHT22;9417;16.484;102.872;2023-04-25T09:09:54;35.60;52.50
18575;DHT22;9417;16.484;102.872;2023-04-25T09:12:02;35.50;52.40
18575;DHT22;9417;16.484;102.872;2023-04-25T09:14:13;35.50;52.30
18575;DHT22;9417;16.484;102.872;2023-04-25T09:19:22;35.40;51.70
18575;DHT22;9417;16.484;102.872;2023-04-25T09:21:54;35.40;52.60
18575;DHT22;9417;16.484;102.872;2023-04-25T09:24:01;35.30;52.90
18575;DHT22;9417;16.484;102.872;2023-04-25T09:26:09;35.30;52.80
18575;DHT22;9417;16.484;102.872;2023-04-25T09:28:17;35.20;53.40
18575;DHT22;9417;16.484;102.872;2023-04-25T09:30:34;35.30;53.60
18575;DHT22;9417;16.484;102.872;2023-04-25T09:32:57;35.30;53.60
18575;DHT22;9417;16.484;102.872;2023-04-25T09:35:06;35.30;53.40
18575;DHT22;9417;16.484;102.872;2023-04-25T09:37:18;35.40;53.90
18575;DHT22;9417;16.484;102.872;2023-04-25T09:39:45;35.40;54.60
18575;DHT22;9417;16.484;102.872;2023-04-25T09:41:55;35.30;54.10
18575;DHT22;9417;16.484;102.872;2023-04-25T09:44:02;35.30;53.40
18575;DHT22;9417;16.484;102.872;2023-04-25T09:46:13;35.30;53.40
18575;DHT22;9417;16.484;102.872;2023-04-25T09:48:27;35.40;53.60
18575;DHT22;9417;16.484;102.872;2023-04-25T09:50:39;35.40;54.00
18575;DHT22;9417;16.484;102.872;2023-04-25T09:53:03;35.40;54.30
18575;DHT22;9417;16.484;102.872;2023-04-25T09:55:29;35.30;54.30
18575;DHT22;9417;16.484;102.872;2023-04-25T09:57:37;35.20;54.60
18575;DHT22;9417;16.484;102.872;2023-04-25T09:59:45;35.30;54.90
18575;DHT22;9417;16.484;102.872;2023-04-25T10:01:54;35.20;54.50
18575;DHT22;9417;16.484;102.872;2023-04-25T10:04:11;35.20;54.10
18575;DHT22;9417;16.484;102.872;2023-04-25T10:06:38;35.20;53.90
18575;DHT22;9417;16.484;102.872;2023-04-25T10:08:51;35.20;53.20
18575;DHT22;9417;16.484;102.872;2023-04-25T10:11:02;35.20;53.00
18575;DHT22;9417;16.484;102.872;2023-04-25T10:13:10;35.20;53.00
18575;DHT22;9417;16.484;102.872;2023-04-25T10:15:20;35.20;53.00
18575;DHT22;9417;16.484;102.872;2023-04-25T10:17:28;35.20;53.20
18575;DHT22;9417;16.484;102.872;2023-04-25T10:19:36;35.20;53.60
18575;DHT22;9417;16.484;102.872;2023-04-25T10:21:50;35.10;53.70
18575;DHT22;9417;16.484;102.872;2023-04-25T10:24:00;35.10;53.80
18575;DHT22;9417;16.484;102.872;2023-04-25T10:26:07;35.00;53.60
18575;DHT22;9417;16.484;102.872;2023-04-25T10:28:17;35.00;53.40
18575;DHT22;9417;16.484;102.872;2023-04-25T10:30:25;35.00;53.30
18575;DHT22;9417;16.484;102.872;2023-04-25T10:32:33;34.90;53.20
18575;DHT22;9417;16.484;102.872;2023-04-25T10:34:41;34.90;53.00
18575;DHT22;9417;16.484;102.872;2023-04-25T10:36:52;34.90;52.90
18575;DHT22;9417;16.484;102.872;2023-04-25T10:39:04;34.90;53.10
18575;DHT22;9417;16.484;102.872;2023-04-25T10:41:14;34.80;53.70
18575;DHT22;9417;16.484;102.872;2023-04-25T10:43:40;34.80;53.80
18575;DHT22;9417;16.484;102.872;2023-04-25T10:45:54;34.70;54.10
18575;DHT22;9417;16.484;102.872;2023-04-25T10:48:02;34.60;54.70
18575;DHT22;9417;16.484;102.872;2023-04-25T10:50:10;34.60;54.70
18575;DHT22;9417;16.484;102.872;2023-04-25T10:52:26;34.50;54.90
18575;DHT22;9417;16.484;102.872;2023-04-25T10:54:41;34.40;55.00
18575;DHT22;9417;16.484;102.872;2023-04-25T10:56:49;34.40;55.20
18575;DHT22;9417;16.484;102.872;2023-04-25T10:59:05;34.40;56.80
18575;DHT22;9417;16.484;102.872;2023-04-25T11:01:15;34.20;59.60
18575;DHT22;9417;16.484;102.872;2023-04-25T11:03:26;34.10;60.80
18575;DHT22;9417;16.484;102.872;2023-04-25T11:05:36;34.00;61.80
18575;DHT22;9417;16.484;102.872;2023-04-25T11:08:01;33.80;62.20
18575;DHT22;9417;16.484;102.872;2023-04-25T11:10:13;33.70;61.90
18575;DHT22;9417;16.484;102.872;2023-04-25T11:12:21;33.60;61.50
18575;DHT22;9417;16.484;102.872;2023-04-25T11:14:28;33.60;60.90
18575;DHT22;9417;16.484;102.872;2023-04-25T11:16:36;33.60;62.20
18575;DHT22;9417;16.484;102.872;2023-04-25T11:18:43;33.50;64.00
18575;DHT22;9417;16.484;102.872;2023-04-25T11:20:51;33.50;63.20
18575;DHT22;9417;16.484;102.872;2023-04-25T11:22:59;33.40;63.20
18575;DHT22;9417;16.484;102.872;2023-04-25T11:25:08;33.40;63.70
18575;DHT22;9417;16.484;102.872;2023-04-25T11:27:18;33.40;63.20
18575;DHT22;9417;16.484;102.872;2023-04-25T11:29:27;33.40;62.60
18575;DHT22;9417;16.484;102.872;2023-04-25T11:31:35;33.30;63.90
18575;DHT22;9417;16.484;102.872;2023-04-25T11:33:42;33.20;64.30
18575;DHT22;9417;16.484;102.872;2023-04-25T11:35:50;33.10;64.80
18575;DHT22;9417;16.484;102.872;2023-04-25T11:37:58;33.10;66.40
18575;DHT22;9417;16.484;102.872;2023-04-25T11:40:07;33.00;67.00
18575;DHT22;9417;16.484;102.872;2023-04-25T11:42:17;33.00;67.70
18575;DHT22;9417;16.484;102.872;2023-04-25T11:44:25;32.90;67.90
18575;DHT22;9417;16.484;102.872;2023-04-25T11:46:34;32.80;69.40
18575;DHT22;9417;16.484;102.872;2023-04-25T11:48:42;32.70;69.40
18575;DHT22;9417;16.484;102.872;2023-04-25T11:50:50;32.70;69.80
18575;DHT22;9417;16.484;102.872;2023-04-25T11:52:58;32.60;69.70
18575;DHT22;9417;16.484;102.872;2023-04-25T11:55:06;32.60;68.10
18575;DHT22;9417;16.484;102.872;2023-04-25T11:57:14;32.50;67.40
18575;DHT22;9417;16.484;102.872;2023-04-25T11:59:26;32.50;69.50
18575;DHT22;9417;16.484;102.872;2023-04-25T12:01:34;32.50;69.80
18575;DHT22;9417;16.484;102.872;2023-04-25T12:03:46;32.40;70.00
18575;DHT22;9417;16.484;102.872;2023-04-25T12:06:03;32.30;70.10
18575;DHT22;9417;16.484;102.872;2023-04-25T12:08:14;32.30;70.70
18575;DHT22;9417;16.484;102.872;2023-04-25T12:10:21;32.20;69.90
18575;DHT22;9417;16.484;102.872;2023-04-25T12:12:29;32.20;72.50
18575;DHT22;9417;16.484;102.872;2023-04-25T12:14:40;32.20;71.90
18575;DHT22;9417;16.484;102.872;2023-04-25T12:16:55;32.10;71.90
18575;DHT22;9417;16.484;102.872;2023-04-25T12:19:03;32.10;71.70
18575;DHT22;9417;16.484;102.872;2023-04-25T12:21:10;32.00;72.00
18575;DHT22;9417;16.484;102.872;2023-04-25T12:23:20;31.90;71.70
18575;DHT22;9417;16.484;102.872;2023-04-25T12:25:36;31.80;70.40
18575;DHT22;9417;16.484;102.872;2023-04-25T12:27:43;31.80;70.80
18575;DHT22;9417;16.484;102.872;2023-04-25T12:29:56;31.80;71.90
18575;DHT22;9417;16.484;102.872;2023-04-25T12:32:04;31.90;72.80
18575;DHT22;9417;16.484;102.872;2023-04-25T12:34:11;31.80;73.10
18575;DHT22;9417;16.484;102.872;2023-04-25T12:36:22;31.70;73.60
18575;DHT22;9417;16.484;102.872;2023-04-25T12:38:31;31.70;73.60
18575;DHT22;9417;16.484;102.872;2023-04-25T12:40:39;31.60;73.40
18575;DHT22;9417;16.484;102.872;2023-04-25T12:42:46;31.60;73.20
18575;DHT22;9417;16.484;102.872;2023-04-25T12:44:55;31.60;73.40
18575;DHT22;9417;16.484;102.872;2023-04-25T12:47:03;31.50;74.30
18575;DHT22;9417;16.484;102.872;2023-04-25T12:49:11;31.50;74.90
18575;DHT22;9417;16.484;102.872;2023-04-25T12:51:22;31.40;74.90
18575;DHT22;9417;16.484;102.872;2023-04-25T12:53:30;31.40;75.50
18575;DHT22;9417;16.484;102.872;2023-04-25T12:55:38;31.40;75.80
18575;DHT22;9417;16.484;102.872;2023-04-25T12:57:46;31.40;75.70
18575;DHT22;9417;16.484;102.872;2023-04-25T12:59:55;31.40;75.30
18575;DHT22;9417;16.484;102.872;2023-04-25T13:02:02;31.40;75.10
18575;DHT22;9417;16.484;102.872;2023-04-25T13:04:10;31.40;75.10
18575;DHT22;9417;16.484;102.872;2023-04-25T13:06:18;31.40;75.40
18575;DHT22;9417;16.484;102.872;2023-04-25T13:08:26;31.40;75.70
18575;DHT22;9417;16.484;102.872;2023-04-25T13:10:34;31.40;76.10
18575;DHT22;9417;16.484;102.872;2023-04-25T13:12:43;31.40;76.30
18575;DHT22;9417;16.484;102.872;2023-04-25T13:14:50;31.30;76.40
18575;DHT22;9417;16.484;102.872;2023-04-25T13:16:59;31.20;75.50
18575;DHT22;9417;16.484;102.872;2023-04-25T13:19:07;31.20;75.20
18575;DHT22;9417;16.484;102.872;2023-04-25T13:21:16;31.20;75.40
18575;DHT22;9417;16.484;102.872;2023-04-25T13:23:24;31.10;76.40
18575;DHT22;9417;16.484;102.872;2023-04-25T13:25:31;31.10;76.50
18575;DHT22;9417;16.484;102.872;2023-04-25T13:27:39;31.10;75.40
18575;DHT22;9417;16.484;102.872;2023-04-25T13:29:46;31.10;74.60
18575;DHT22;9417;16.484;102.872;2023-04-25T13:31:53;31.10;74.10
18575;DHT22;9417;16.484;102.872;2023-04-25T13:34:02;31.10;73.70
18575;DHT22;9417;16.484;102.872;2023-04-25T13:36:10;31.20;74.00
18575;DHT22;9417;16.484;102.872;2023-04-25T13:38:17;31.20;74.60